sensor_id;sensor_type;location;lat;lon;timestamp;temperature;humidity
22089;DHT22;11211;52.728;9.230;2022-11-15T00:00:45;16.90;92.90
22089;DHT22;11211;52.728;9.230;2022-11-15T00:03:13;16.80;92.90
22089;DHT22;11211;52.728;9.230;2022-11-15T00:05:41;16.90;92.90
22089;DHT22;11211;52.728;9.230;2022-11-15T00:08:08;16.80;92.90
22089;DHT22;11211;52.728;9.230;2022-11-15T00:10:35;16.80;92.90
22089;DHT22;11211;52.728;9.230;2022-11-15T00:13:05;16.80;92.90
22089;DHT22;11211;52.728;9.230;2022-11-15T00:15:34;16.80;92.90
22089;DHT22;11211;52.728;9.230;2022-11-15T00:18:01;16.80;92.90
22089;DHT22;11211;52.728;9.230;2022-11-15T00:20:28;16.80;92.90
22089;DHT22;11211;52.728;9.230;2022-11-15T00:22:56;16.80;92.90
22089;DHT22;11211;52.728;9.230;2022-11-15T00:25:23;16.80;92.90
22089;DHT22;11211;52.728;9.230;2022-11-15T00:27:49;16.80;92.90
22089;DHT22;11211;52.728;9.230;2022-11-15T00:30:17;16.80;92.90
22089;DHT22;11211;52.728;9.230;2022-11-15T00:32:43;16.80;92.90
22089;DHT22;11211;52.728;9.230;2022-11-15T00:35:10;16.80;92.90
22089;DHT22;11211;52.728;9.230;2022-11-15T00:37:37;16.70;92.90
22089;DHT22;11211;52.728;9.230;2022-11-15T00:40:06;16.80;93.00
22089;DHT22;11211;52.728;9.230;2022-11-15T00:42:33;16.80;93.00
22089;DHT22;11211;52.728;9.230;2022-11-15T00:45:00;16.70;92.90
22089;DHT22;11211;52.728;9.230;2022-11-15T00:47:27;16.70;92.90
22089;DHT22;11211;52.728;9.230;2022-11-15T00:49:53;16.70;92.90
22089;DHT22;11211;52.728;9.230;2022-11-15T00:52:20;16.70;92.90
22089;DHT22;11211;52.728;9.230;2022-11-15T00:54:47;16.70;93.00
22089;DHT22;11211;52.728;9.230;2022-11-15T00:57:15;16.70;92.90
22089;DHT22;11211;52.728;9.230;2022-11-15T00:59:41;16.70;93.00
22089;DHT22;11211;52.728;9.230;2022-11-15T01:02:08;16.70;93.00
22089;DHT22;11211;52.728;9.230;2022-11-15T01:04:35;16.70;93.00
22089;DHT22;11211;52.728;9.230;2022-11-15T01:07:02;16.70;93.00
22089;DHT22;11211;52.728;9.230;2022-11-15T01:09:28;16.70;93.00
22089;DHT22;11211;52.728;9.230;2022-11-15T01:11:55;16.70;93.00
22089;DHT22;11211;52.728;9.230;2022-11-15T01:14:23;16.70;93.00
22089;DHT22;11211;52.728;9.230;2022-11-15T01:16:50;16.70;93.00
22089;DHT22;11211;52.728;9.230;2022-11-15T01:19:17;16.60;93.00
22089;DHT22;11211;52.728;9.230;2022-11-15T01:21:43;16.60;93.00
22089;DHT22;11211;52.728;9.230;2022-11-15T01:24:11;16.60;93.00
22089;DHT22;11211;52.728;9.230;2022-11-15T01:26:39;16.60;93.00
22089;DHT22;11211;52.728;9.230;2022-11-15T01:29:05;16.60;93.00
22089;DHT22;11211;52.728;9.230;2022-11-15T01:31:33;16.60;93.00
22089;DHT22;11211;52.728;9.230;2022-11-15T01:34:00;16.60;93.00
22089;DHT22;11211;52.728;9.230;2022-11-15T01:36:27;16.60;93.00
22089;DHT22;11211;52.728;9.230;2022-11-15T01:38:54;16.60;93.00
22089;DHT22;11211;52.728;9.230;2022-11-15T01:41:23;16.60;93.00
22089;DHT22;11211;52.728;9.230;2022-11-15T01:43:53;16.60;93.00
22089;DHT22;11211;52.728;9.230;2022-11-15T01:46:28;16.60;93.00
22089;DHT22;11211;52.728;9.230;2022-11-15T01:49:00;16.60;93.00
22089;DHT22;11211;52.728;9.230;2022-11-15T01:51:30;16.60;93.00
22089;DHT22;11211;52.728;9.230;2022-11-15T01:54:00;16.60;93.00
22089;DHT22;11211;52.728;9.230;2022-11-15T01:56:30;16.60;93.00
22089;DHT22;11211;52.728;9.230;2022-11-15T01:58:59;16.60;93.00
22089;DHT22;11211;52.728;9.230;2022-11-15T02:01:26;16.60;93.00
22089;DHT22;11211;52.728;9.230;2022-11-15T02:03:59;16.60;93.00
22089;DHT22;11211;52.728;9.230;2022-11-15T02:06:27;16.60;93.00
22089;DHT22;11211;52.728;9.230;2022-11-15T02:08:54;16.50;93.00
22089;DHT22;11211;52.728;9.230;2022-11-15T02:11:22;16.60;93.00
22089;DHT22;11211;52.728;9.230;2022-11-15T02:13:49;16.60;93.00
22089;DHT22;11211;52.728;9.230;2022-11-15T02:16:25;16.50;93.00
22089;DHT22;11211;52.728;9.230;2022-11-15T02:18:59;16.50;93.00
22089;DHT22;11211;52.728;9.230;2022-11-15T02:21:35;16.50;93.00
22089;DHT22;11211;52.728;9.230;2022-11-15T02:27:38;16.50;93.00
22089;DHT22;11211;52.728;9.230;2022-11-15T02:30:28;16.50;93.00
22089;DHT22;11211;52.728;9.230;2022-11-15T02:33:04;16.50;93.00
22089;DHT22;11211;52.728;9.230;2022-11-15T02:35:38;16.50;93.00
22089;DHT22;11211;52.728;9.230;2022-11-15T02:38:12;16.50;93.00
22089;DHT22;11211;52.728;9.230;2022-11-15T02:40:48;16.50;93.00
22089;DHT22;11211;52.728;9.230;2022-11-15T02:43:22;16.50;93.10
22089;DHT22;11211;52.728;9.230;2022-11-15T02:46:14;16.50;93.10
22089;DHT22;11211;52.728;9.230;2022-11-15T02:48:43;16.60;93.10
22089;DHT22;11211;52.728;9.230;2022-11-15T02:51:12;16.60;93.10
22089;DHT22;11211;52.728;9.230;2022-11-15T02:53:39;16.60;93.10
22089;DHT22;11211;52.728;9.230;2022-11-15T02:56:09;16.60;93.10
22089;DHT22;11211;52.728;9.230;2022-11-15T02:58:54;16.70;93.00
22089;DHT22;11211;52.728;9.230;2022-11-15T03:01:34;16.60;93.00
22089;DHT22;11211;52.728;9.230;2022-11-15T03:04:14;16.60;93.00
22089;DHT22;11211;52.728;9.230;2022-11-15T03:06:48;16.70;93.00
22089;DHT22;11211;52.728;9.230;2022-11-15T03:09:24;16.70;93.00
22089;DHT22;11211;52.728;9.230;2022-11-15T03:11:58;16.70;93.00
22089;DHT22;11211;52.728;9.230;2022-11-15T03:14:29;16.70;93.00
22089;DHT22;11211;52.728;9.230;2022-11-15T03:17:02;16.70;92.90
22089;DHT22;11211;52.728;9.230;2022-11-15T03:19:37;16.70;92.90
22089;DHT22;11211;52.728;9.230;2022-11-15T03:22:10;16.70;92.90
22089;DHT22;11211;52.728;9.230;2022-11-15T03:24:38;16.70;93.30
22089;DHT22;11211;52.728;9.230;2022-11-15T03:27:06;16.70;92.90
22089;DHT22;11211;52.728;9.230;2022-11-15T03:29:38;16.70;92.90
22089;DHT22;11211;52.728;9.230;2022-11-15T03:32:12;16.70;92.90
22089;DHT22;11211;52.728;9.230;2022-11-15T03:34:43;16.70;92.90
22089;DHT22;11211;52.728;9.230;2022-11-15T03:37:12;16.70;92.90
22089;DHT22;11211;52.728;9.230;2022-11-15T03:39:40;16.70;92.90
22089;DHT22;11211;52.728;9.230;2022-11-15T03:42:17;16.70;92.90
22089;DHT22;11211;52.728;9.230;2022-11-15T03:44:51;16.70;92.90
22089;DHT22;11211;52.728;9.230;2022-11-15T03:47:25;16.70;92.90
22089;DHT22;11211;52.728;9.230;2022-11-15T03:49:57;16.70;92.90
22089;DHT22;11211;52.728;9.230;2022-11-15T03:52:24;16.70;92.90
22089;DHT22;11211;52.728;9.230;2022-11-15T03:54:54;16.70;92.90
22089;DHT22;11211;52.728;9.230;2022-11-15T03:57:21;16.70;92.90
22089;DHT22;11211;52.728;9.230;2022-11-15T03:59:48;16.70;92.90
22089;DHT22;11211;52.728;9.230;2022-11-15T04:02:15;16.70;92.90
22089;DHT22;11211;52.728;9.230;2022-11-15T04:04:43;16.70;92.90
22089;DHT22;11211;52.728;9.230;2022-11-15T04:07:09;16.70;92.90
22089;DHT22;11211;52.728;9.230;2022-11-15T04:09:36;16.70;92.90
22089;DHT22;11211;52.728;9.230;2022-11-15T04:12:24;16.70;92.90
22089;DHT22;11211;52.728;9.230;2022-11-15T04:14:57;16.70;92.90
22089;DHT22;11211;52.728;9.230;2022-11-15T04:17:34;16.70;92.90
22089;DHT22;11211;52.728;9.230;2022-11-15T04:20:04;16.70;92.90
22089;DHT22;11211;52.728;9.230;2022-11-15T04:22:48;16.70;92.90
22089;DHT22;11211;52.728;9.230;2022-11-15T04:25:35;16.60;92.90
22089;DHT22;11211;52.728;9.230;2022-11-15T04:28:02;16.60;92.90
22089;DHT22;11211;52.728;9.230;2022-11-15T04:30:29;16.60;92.90
22089;DHT22;11211;52.728;9.230;2022-11-15T04:32:55;16.60;92.90
22089;DHT22;11211;52.728;9.230;2022-11-15T04:35:23;16.60;92.90
22089;DHT22;11211;52.728;9.230;2022-11-15T04:37:50;16.60;92.90
22089;DHT22;11211;52.728;9.230;2022-11-15T04:40:16;16.60;93.00
22089;DHT22;11211;52.728;9.230;2022-11-15T04:42:43;16.60;93.00
22089;DHT22;11211;52.728;9.230;2022-11-15T04:45:10;16.60;93.00
22089;DHT22;11211;52.728;9.230;2022-11-15T04:47:37;16.60;93.00
22089;DHT22;11211;52.728;9.230;2022-11-15T04:50:04;16.60;93.00
22089;DHT22;11211;52.728;9.230;2022-11-15T04:52:32;16.60;93.00
22089;DHT22;11211;52.728;9.230;2022-11-15T04:54:59;16.60;93.00
22089;DHT22;11211;52.728;9.230;2022-11-15T04:57:26;16.70;93.00
22089;DHT22;11211;52.728;9.230;2022-11-15T04:59:52;16.70;93.00
22089;DHT22;11211;52.728;9.230;2022-11-15T05:02:19;16.70;93.00
22089;DHT22;11211;52.728;9.230;2022-11-15T05:04:46;16.70;93.00
22089;DHT22;11211;52.728;9.230;2022-11-15T05:07:11;16.80;93.00
22089;DHT22;11211;52.728;9.230;2022-11-15T05:09:40;16.80;93.00
22089;DHT22;11211;52.728;9.230;2022-11-15T05:12:06;16.80;93.00
22089;DHT22;11211;52.728;9.230;2022-11-15T05:14:33;16.80;93.00
22089;DHT22;11211;52.728;9.230;2022-11-15T05:17:00;16.80;93.00
22089;DHT22;11211;52.728;9.230;2022-11-15T05:19:26;16.90;93.00
22089;DHT22;11211;52.728;9.230;2022-11-15T05:21:53;16.90;93.00
22089;DHT22;11211;52.728;9.230;2022-11-15T05:24:20;16.90;92.90
22089;DHT22;11211;52.728;9.230;2022-11-15T05:26:48;16.90;92.90
22089;DHT22;11211;52.728;9.230;2022-11-15T05:29:14;16.90;92.90
22089;DHT22;11211;52.728;9.230;2022-11-15T05:31:41;16.90;92.90
22089;DHT22;11211;52.728;9.230;2022-11-15T05:34:08;16.90;92.90
22089;DHT22;11211;52.728;9.230;2022-11-15T05:36:37;16.90;92.90
22089;DHT22;11211;52.728;9.230;2022-11-15T05:39:06;16.90;92.90
22089;DHT22;11211;52.728;9.230;2022-11-15T05:41:35;16.90;92.90
22089;DHT22;11211;52.728;9.230;2022-11-15T05:44:07;16.90;92.90
22089;DHT22;11211;52.728;9.230;2022-11-15T05:46:35;16.90;92.90
22089;DHT22;11211;52.728;9.230;2022-11-15T05:49:02;16.90;92.90
22089;DHT22;11211;52.728;9.230;2022-11-15T05:51:31;16.90;92.90
22089;DHT22;11211;52.728;9.230;2022-11-15T05:53:58;16.90;92.90
22089;DHT22;11211;52.728;9.230;2022-11-15T05:56:25;16.90;92.80
22089;DHT22;11211;52.728;9.230;2022-11-15T05:58:53;16.90;92.70
22089;DHT22;11211;52.728;9.230;2022-11-15T06:01:23;16.90;92.60
22089;DHT22;11211;52.728;9.230;2022-11-15T06:03:51;16.80;92.50
22089;DHT22;11211;52.728;9.230;2022-11-15T06:06:18;16.80;92.40
22089;DHT22;11211;52.728;9.230;2022-11-15T06:08:44;16.80;92.30
22089;DHT22;11211;52.728;9.230;2022-11-15T06:11:13;16.80;92.30
22089;DHT22;11211;52.728;9.230;2022-11-15T06:13:40;16.80;92.40
22089;DHT22;11211;52.728;9.230;2022-11-15T06:16:07;16.80;92.40
22089;DHT22;11211;52.728;9.230;2022-11-15T06:18:35;16.80;92.40
22089;DHT22;11211;52.728;9.230;2022-11-15T06:21:03;16.80;92.40
22089;DHT22;11211;52.728;9.230;2022-11-15T06:23:32;16.90;92.50
22089;DHT22;11211;52.728;9.230;2022-11-15T06:25:59;16.90;92.50
22089;DHT22;11211;52.728;9.230;2022-11-15T06:28:28;16.90;92.80
22089;DHT22;11211;52.728;9.230;2022-11-15T06:30:55;16.90;92.60
22089;DHT22;11211;52.728;9.230;2022-11-15T06:33:22;16.90;92.60
22089;DHT22;11211;52.728;9.230;2022-11-15T06:35:50;16.90;92.60
22089;DHT22;11211;52.728;9.230;2022-11-15T06:38:17;16.90;92.60
22089;DHT22;11211;52.728;9.230;2022-11-15T06:40:44;16.90;92.60
22089;DHT22;11211;52.728;9.230;2022-11-15T06:43:11;17.00;92.70
22089;DHT22;11211;52.728;9.230;2022-11-15T06:45:37;16.90;92.70
22089;DHT22;11211;52.728;9.230;2022-11-15T06:48:05;17.00;92.70
22089;DHT22;11211;52.728;9.230;2022-11-15T06:50:32;17.00;92.70
22089;DHT22;11211;52.728;9.230;2022-11-15T06:53:03;17.00;92.70
22089;DHT22;11211;52.728;9.230;2022-11-15T06:55:30;17.00;92.70
22089;DHT22;11211;52.728;9.230;2022-11-15T06:57:56;17.00;92.80
22089;DHT22;11211;52.728;9.230;2022-11-15T07:00:23;17.00;92.80
22089;DHT22;11211;52.728;9.230;2022-11-15T07:02:50;17.00;92.80
22089;DHT22;11211;52.728;9.230;2022-11-15T07:05:16;17.00;92.80
22089;DHT22;11211;52.728;9.230;2022-11-15T07:07:45;17.00;92.80
22089;DHT22;11211;52.728;9.230;2022-11-15T07:10:18;16.90;92.80
22089;DHT22;11211;52.728;9.230;2022-11-15T07:12:47;16.90;92.80
22089;DHT22;11211;52.728;9.230;2022-11-15T07:15:14;16.90;92.80
22089;DHT22;11211;52.728;9.230;2022-11-15T07:17:41;16.90;92.80
22089;DHT22;11211;52.728;9.230;2022-11-15T07:20:08;16.90;92.80
22089;DHT22;11211;52.728;9.230;2022-11-15T07:22:35;16.90;92.80
22089;DHT22;11211;52.728;9.230;2022-11-15T07:25:02;16.90;92.80
22089;DHT22;11211;52.728;9.230;2022-11-15T07:27:30;16.90;92.80
22089;DHT22;11211;52.728;9.230;2022-11-15T07:29:57;16.80;92.80
22089;DHT22;11211;52.728;9.230;2022-11-15T07:32:24;16.80;92.80
22089;DHT22;11211;52.728;9.230;2022-11-15T07:34:51;16.80;92.80
22089;DHT22;11211;52.728;9.230;2022-11-15T07:37:17;16.80;92.90
22089;DHT22;11211;52.728;9.230;2022-11-15T07:39:44;16.80;92.90
22089;DHT22;11211;52.728;9.230;2022-11-15T07:42:11;16.80;92.90
22089;DHT22;11211;52.728;9.230;2022-11-15T07:44:57;16.80;92.90
22089;DHT22;11211;52.728;9.230;2022-11-15T07:47:23;16.80;92.90
22089;DHT22;11211;52.728;9.230;2022-11-15T07:49:50;16.80;92.90
22089;DHT22;11211;52.728;9.230;2022-11-15T07:52:17;16.80;92.90
22089;DHT22;11211;52.728;9.230;2022-11-15T07:54:44;16.80;92.90
22089;DHT22;11211;52.728;9.230;2022-11-15T07:57:10;16.70;92.90
22089;DHT22;11211;52.728;9.230;2022-11-15T07:59:37;16.70;92.90
22089;DHT22;11211;52.728;9.230;2022-11-15T08:02:05;16.70;92.90
22089;DHT22;11211;52.728;9.230;2022-11-15T08:04:32;16.70;92.90
22089;DHT22;11211;52.728;9.230;2022-11-15T08:06:58;16.70;92.90
22089;DHT22;11211;52.728;9.230;2022-11-15T08:09:25;16.70;92.90
22089;DHT22;11211;52.728;9.230;2022-11-15T08:11:52;16.70;92.90
22089;DHT22;11211;52.728;9.230;2022-11-15T08:14:19;16.70;93.00
22089;DHT22;11211;52.728;9.230;2022-11-15T08:16:47;16.70;93.00
22089;DHT22;11211;52.728;9.230;2022-11-15T08:19:15;16.70;93.00
22089;DHT22;11211;52.728;9.230;2022-11-15T08:21:42;16.70;93.00
22089;DHT22;11211;52.728;9.230;2022-11-15T08:24:09;16.70;93.00
22089;DHT22;11211;52.728;9.230;2022-11-15T08:26:36;16.70;93.00
22089;DHT22;11211;52.728;9.230;2022-11-15T08:29:03;16.70;93.00
22089;DHT22;11211;52.728;9.230;2022-11-15T08:31:30;16.70;93.00
22089;DHT22;11211;52.728;9.230;2022-11-15T08:33:56;16.70;92.90
22089;DHT22;11211;52.728;9.230;2022-11-15T08:36:24;16.70;92.90
22089;DHT22;11211;52.728;9.230;2022-11-15T08:38:51;16.70;92.90
22089;DHT22;11211;52.728;9.230;2022-11-15T08:41:24;16.70;92.90
22089;DHT22;11211;52.728;9.230;2022-11-15T08:43:52;16.70;92.90
22089;DHT22;11211;52.728;9.230;2022-11-15T08:46:19;16.70;92.90
22089;DHT22;11211;52.728;9.230;2022-11-15T08:48:45;16.70;92.90
22089;DHT22;11211;52.728;9.230;2022-11-15T08:51:12;16.70;92.90
22089;DHT22;11211;52.728;9.230;2022-11-15T08:53:40;16.70;92.90
22089;DHT22;11211;52.728;9.230;2022-11-15T08:56:08;16.70;92.90
22089;DHT22;11211;52.728;9.230;2022-11-15T08:58:35;16.70;92.80
22089;DHT22;11211;52.728;9.230;2022-11-15T09:01:03;16.70;92.80
22089;DHT22;11211;52.728;9.230;2022-11-15T09:03:30;16.70;92.80
22089;DHT22;11211;52.728;9.230;2022-11-15T09:05:58;16.70;92.80
22089;DHT22;11211;52.728;9.230;2022-11-15T09:08:28;16.70;92.80
22089;DHT22;11211;52.728;9.230;2022-11-15T09:10:57;16.70;92.80
22089;DHT22;11211;52.728;9.230;2022-11-15T09:13:24;16.60;92.80
22089;DHT22;11211;52.728;9.230;2022-11-15T09:15:51;16.60;92.80
22089;DHT22;11211;52.728;9.230;2022-11-15T09:18:17;16.60;92.80
22089;DHT22;11211;52.728;9.230;2022-11-15T09:20:45;16.60;92.80
22089;DHT22;11211;52.728;9.230;2022-11-15T09:23:12;16.70;92.80
22089;DHT22;11211;52.728;9.230;2022-11-15T09:25:39;16.60;92.70
22089;DHT22;11211;52.728;9.230;2022-11-15T09:28:08;16.50;92.80
22089;DHT22;11211;52.728;9.230;2022-11-15T09:30:34;16.40;92.90
22089;DHT22;11211;52.728;9.230;2022-11-15T09:33:06;16.40;93.00
22089;DHT22;11211;52.728;9.230;2022-11-15T09:35:33;16.30;93.00
22089;DHT22;11211;52.728;9.230;2022-11-15T09:38:00;16.30;93.20
22089;DHT22;11211;52.728;9.230;2022-11-15T09:40:27;16.20;93.20
22089;DHT22;11211;52.728;9.230;2022-11-15T09:43:10;16.20;93.30
22089;DHT22;11211;52.728;9.230;2022-11-15T09:45:52;16.10;93.30
22089;DHT22;11211;52.728;9.230;2022-11-15T09:48:36;16.10;93.40
22089;DHT22;11211;52.728;9.230;2022-11-15T09:51:14;16.20;93.50
22089;DHT22;11211;52.728;9.230;2022-11-15T09:53:49;16.20;93.50
22089;DHT22;11211;52.728;9.230;2022-11-15T09:56:20;16.20;93.40
22089;DHT22;11211;52.728;9.230;2022-11-15T09:58:52;16.30;93.40
22089;DHT22;11211;52.728;9.230;2022-11-15T10:01:33;16.30;93.30
22089;DHT22;11211;52.728;9.230;2022-11-15T10:04:03;16.30;93.30
22089;DHT22;11211;52.728;9.230;2022-11-15T10:06:31;16.30;93.30
22089;DHT22;11211;52.728;9.230;2022-11-15T10:09:03;16.40;93.30
22089;DHT22;11211;52.728;9.230;2022-11-15T10:11:35;16.40;93.20
22089;DHT22;11211;52.728;9.230;2022-11-15T10:14:09;16.40;93.20
22089;DHT22;11211;52.728;9.230;2022-11-15T10:19:50;16.40;93.20
22089;DHT22;11211;52.728;9.230;2022-11-15T10:22:25;16.40;93.10
22089;DHT22;11211;52.728;9.230;2022-11-15T10:25:08;16.40;93.10
22089;DHT22;11211;52.728;9.230;2022-11-15T10:27:39;16.50;93.10
22089;DHT22;11211;52.728;9.230;2022-11-15T10:30:12;16.50;93.10
22089;DHT22;11211;52.728;9.230;2022-11-15T10:32:40;16.50;93.10
22089;DHT22;11211;52.728;9.230;2022-11-15T10:35:21;16.50;93.10
22089;DHT22;11211;52.728;9.230;2022-11-15T10:37:48;16.50;93.10
22089;DHT22;11211;52.728;9.230;2022-11-15T10:40:17;16.50;93.00
22089;DHT22;11211;52.728;9.230;2022-11-15T10:42:44;16.50;93.00
22089;DHT22;11211;52.728;9.230;2022-11-15T10:45:28;16.50;93.00
22089;DHT22;11211;52.728;9.230;2022-11-15T10:48:22;16.50;93.00
22089;DHT22;11211;52.728;9.230;2022-11-15T10:50:50;16.50;93.10
22089;DHT22;11211;52.728;9.230;2022-11-15T10:56:07;16.50;93.00
22089;DHT22;11211;52.728;9.230;2022-11-15T10:58:37;16.60;93.00
22089;DHT22;11211;52.728;9.230;2022-11-15T11:01:16;16.50;93.00
22089;DHT22;11211;52.728;9.230;2022-11-15T11:03:45;16.50;93.00
22089;DHT22;11211;52.728;9.230;2022-11-15T11:06:14;16.60;93.10
22089;DHT22;11211;52.728;9.230;2022-11-15T11:08:54;16.50;93.00
22089;DHT22;11211;52.728;9.230;2022-11-15T11:11:21;16.50;93.00
22089;DHT22;11211;52.728;9.230;2022-11-15T11:13:49;16.50;93.00
22089;DHT22;11211;52.728;9.230;2022-11-15T11:16:38;16.50;93.00
22089;DHT22;11211;52.728;9.230;2022-11-15T11:19:17;16.50;93.00
22089;DHT22;11211;52.728;9.230;2022-11-15T11:21:51;16.50;93.00
22089;DHT22;11211;52.728;9.230;2022-11-15T11:24:28;16.50;93.00
22089;DHT22;11211;52.728;9.230;2022-11-15T11:27:08;16.50;93.00
22089;DHT22;11211;52.728;9.230;2022-11-15T11:29:50;16.50;93.00
22089;DHT22;11211;52.728;9.230;2022-11-15T11:32:36;16.50;93.00
22089;DHT22;11211;52.728;9.230;2022-11-15T11:35:11;16.50;93.00
22089;DHT22;11211;52.728;9.230;2022-11-15T11:37:46;16.50;93.00
22089;DHT22;11211;52.728;9.230;2022-11-15T11:40:24;16.60;93.10
22089;DHT22;11211;52.728;9.230;2022-11-15T11:42:57;16.50;93.00
22089;DHT22;11211;52.728;9.230;2022-11-15T11:48:33;16.50;93.00
22089;DHT22;11211;52.728;9.230;2022-11-15T11:51:11;16.60;93.10
22089;DHT22;11211;52.728;9.230;2022-11-15T11:53:42;16.50;93.00
22089;DHT22;11211;52.728;9.230;2022-11-15T11:56:21;16.50;93.00
22089;DHT22;11211;52.728;9.230;2022-11-15T11:58:51;16.50;93.00
22089;DHT22;11211;52.728;9.230;2022-11-15T12:01:23;16.50;93.00
22089;DHT22;11211;52.728;9.230;2022-11-15T12:03:56;16.50;93.00
22089;DHT22;11211;52.728;9.230;2022-11-15T12:06:29;16.60;93.10
22089;DHT22;11211;52.728;9.230;2022-11-15T12:09:01;16.50;93.10
22089;DHT22;11211;52.728;9.230;2022-11-15T12:11:30;16.60;93.10
22089;DHT22;11211;52.728;9.230;2022-11-15T12:14:01;16.60;93.10
22089;DHT22;11211;52.728;9.230;2022-11-15T12:16:31;16.60;93.10
22089;DHT22;11211;52.728;9.230;2022-11-15T12:19:02;16.60;93.10
22089;DHT22;11211;52.728;9.230;2022-11-15T12:21:39;16.60;93.00
22089;DHT22;11211;52.728;9.230;2022-11-15T12:24:13;16.60;93.00
22089;DHT22;11211;52.728;9.230;2022-11-15T12:26:45;16.60;93.00
22089;DHT22;11211;52.728;9.230;2022-11-15T12:29:16;16.60;93.00
22089;DHT22;11211;52.728;9.230;2022-11-15T12:31:50;16.60;93.00
22089;DHT22;11211;52.728;9.230;2022-11-15T12:34:37;16.60;93.40
22089;DHT22;11211;52.728;9.230;2022-11-15T12:37:44;16.60;93.10
22089;DHT22;11211;52.728;9.230;2022-11-15T12:40:24;16.60;93.20
22089;DHT22;11211;52.728;9.230;2022-11-15T12:46:02;16.70;93.20
22089;DHT22;11211;52.728;9.230;2022-11-15T12:48:52;16.70;93.20
22089;DHT22;11211;52.728;9.230;2022-11-15T12:54:57;16.70;93.20
22089;DHT22;11211;52.728;9.230;2022-11-15T12:57:29;16.70;93.20
22089;DHT22;11211;52.728;9.230;2022-11-15T12:59:57;16.80;93.20
22089;DHT22;11211;52.728;9.230;2022-11-15T13:02:29;16.80;93.20
22089;DHT22;11211;52.728;9.230;2022-11-15T13:08:03;16.80;93.20
22089;DHT22;11211;52.728;9.230;2022-11-15T13:10:32;16.80;93.20
22089;DHT22;11211;52.728;9.230;2022-11-15T13:13:00;16.80;93.20
22089;DHT22;11211;52.728;9.230;2022-11-15T13:15:53;16.80;93.20
22089;DHT22;11211;52.728;9.230;2022-11-15T13:21:20;16.80;93.20
22089;DHT22;11211;52.728;9.230;2022-11-15T13:24:20;16.80;93.30
22089;DHT22;11211;52.728;9.230;2022-11-15T13:26:47;16.80;93.20
22089;DHT22;11211;52.728;9.230;2022-11-15T13:29:18;16.80;93.20
22089;DHT22;11211;52.728;9.230;2022-11-15T13:31:46;16.80;93.20
22089;DHT22;11211;52.728;9.230;2022-11-15T13:34:19;16.80;93.20
22089;DHT22;11211;52.728;9.230;2022-11-15T13:36:48;16.80;93.20
22089;DHT22;11211;52.728;9.230;2022-11-15T13:39:28;16.80;93.30
22089;DHT22;11211;52.728;9.230;2022-11-15T13:41:55;16.80;93.30
22089;DHT22;11211;52.728;9.230;2022-11-15T13:44:24;16.80;93.30
22089;DHT22;11211;52.728;9.230;2022-11-15T13:47:01;16.80;93.30
22089;DHT22;11211;52.728;9.230;2022-11-15T13:49:30;16.80;93.30
22089;DHT22;11211;52.728;9.230;2022-11-15T13:51:58;16.80;93.30
22089;DHT22;11211;52.728;9.230;2022-11-15T13:54:30;16.80;93.30
22089;DHT22;11211;52.728;9.230;2022-11-15T13:57:03;16.80;93.30
22089;DHT22;11211;52.728;9.230;2022-11-15T13:59:32;16.80;93.30
22089;DHT22;11211;52.728;9.230;2022-11-15T14:02:12;16.90;93.40
22089;DHT22;11211;52.728;9.230;2022-11-15T14:04:46;16.90;93.40
22089;DHT22;11211;52.728;9.230;2022-11-15T14:07:17;16.90;93.40
22089;DHT22;11211;52.728;9.230;2022-11-15T14:09:46;17.00;93.40
22089;DHT22;11211;52.728;9.230;2022-11-15T14:12:28;17.00;93.30
22089;DHT22;11211;52.728;9.230;2022-11-15T14:14:55;17.10;93.70
22089;DHT22;11211;52.728;9.230;2022-11-15T14:17:34;17.10;93.30
22089;DHT22;11211;52.728;9.230;2022-11-15T14:20:01;17.20;93.30
22089;DHT22;11211;52.728;9.230;2022-11-15T14:22:29;17.20;93.30
22089;DHT22;11211;52.728;9.230;2022-11-15T14:25:16;17.30;93.20
22089;DHT22;11211;52.728;9.230;2022-11-15T14:27:45;17.40;93.20
22089;DHT22;11211;52.728;9.230;2022-11-15T14:30:31;17.40;93.20
22089;DHT22;11211;52.728;9.230;2022-11-15T14:32:57;17.50;93.20
22089;DHT22;11211;52.728;9.230;2022-11-15T14:35:24;17.50;93.10
22089;DHT22;11211;52.728;9.230;2022-11-15T14:37:51;17.60;93.10
22089;DHT22;11211;52.728;9.230;2022-11-15T14:40:21;17.70;93.10
22089;DHT22;11211;52.728;9.230;2022-11-15T14:42:49;17.70;93.10
22089;DHT22;11211;52.728;9.230;2022-11-15T14:45:18;17.80;93.10
22089;DHT22;11211;52.728;9.230;2022-11-15T14:47:45;17.80;93.10
22089;DHT22;11211;52.728;9.230;2022-11-15T14:50:12;17.80;93.00
22089;DHT22;11211;52.728;9.230;2022-11-15T14:52:40;17.80;92.90
22089;DHT22;11211;52.728;9.230;2022-11-15T14:55:16;17.90;92.90
22089;DHT22;11211;52.728;9.230;2022-11-15T14:57:45;17.90;92.90
22089;DHT22;11211;52.728;9.230;2022-11-15T15:00:13;18.00;92.80
22089;DHT22;11211;52.728;9.230;2022-11-15T15:02:41;18.00;92.80
22089;DHT22;11211;52.728;9.230;2022-11-15T15:05:15;18.00;92.80
22089;DHT22;11211;52.728;9.230;2022-11-15T15:07:42;18.00;92.80
22089;DHT22;11211;52.728;9.230;2022-11-15T15:10:09;18.00;92.80
22089;DHT22;11211;52.728;9.230;2022-11-15T15:12:36;18.00;92.80
22089;DHT22;11211;52.728;9.230;2022-11-15T15:15:05;18.10;92.80
22089;DHT22;11211;52.728;9.230;2022-11-15T15:17:32;18.10;92.80
22089;DHT22;11211;52.728;9.230;2022-11-15T15:19:59;18.10;92.80
22089;DHT22;11211;52.728;9.230;2022-11-15T15:22:28;18.10;92.80
22089;DHT22;11211;52.728;9.230;2022-11-15T15:24:55;18.10;92.80
22089;DHT22;11211;52.728;9.230;2022-11-15T15:27:22;18.20;92.90
22089;DHT22;11211;52.728;9.230;2022-11-15T15:29:49;18.20;92.90
22089;DHT22;11211;52.728;9.230;2022-11-15T15:32:17;18.30;92.90
22089;DHT22;11211;52.728;9.230;2022-11-15T15:34:44;18.30;93.00
22089;DHT22;11211;52.728;9.230;2022-11-15T15:37:21;18.30;93.00
22089;DHT22;11211;52.728;9.230;2022-11-15T15:39:49;18.30;93.00
22089;DHT22;11211;52.728;9.230;2022-11-15T15:42:16;18.30;92.90
22089;DHT22;11211;52.728;9.230;2022-11-15T15:44:42;18.40;93.00
22089;DHT22;11211;52.728;9.230;2022-11-15T15:47:11;18.40;93.00
22089;DHT22;11211;52.728;9.230;2022-11-15T15:49:39;18.40;92.90
22089;DHT22;11211;52.728;9.230;2022-11-15T15:52:06;18.40;93.00
22089;DHT22;11211;52.728;9.230;2022-11-15T15:54:32;18.40;92.90
22089;DHT22;11211;52.728;9.230;2022-11-15T15:56:59;18.40;92.90
22089;DHT22;11211;52.728;9.230;2022-11-15T15:59:26;18.40;92.90
22089;DHT22;11211;52.728;9.230;2022-11-15T16:01:53;18.40;92.90
22089;DHT22;11211;52.728;9.230;2022-11-15T16:04:19;18.40;92.90
22089;DHT22;11211;52.728;9.230;2022-11-15T16:06:47;18.40;92.90
22089;DHT22;11211;52.728;9.230;2022-11-15T16:09:17;18.40;92.90
22089;DHT22;11211;52.728;9.230;2022-11-15T16:11:45;18.40;92.90
22089;DHT22;11211;52.728;9.230;2022-11-15T16:14:12;18.40;92.90